Time;durP1;ratioP1;P1;durP2;ratioP2;P2;SDS_P1;SDS_P2;PMS_P1;PMS_P2;Temp;Humidity;BMP_temperature;BMP_pressure;BME280_temperature;BME280_humidity;BME280_pressure;Samples;Min_cycle;Max_cycle;Signal;HPM_P1;HPM_P2
2023/05/27 00:00:56;;;;;;;11.50;3.17;;;17.60;61.30;;;;;;3956010;29;20059;-59
2023/05/27 00:03:38;;;;;;;8.40;3.67;;;17.60;61.40;;;;;;3970320;29;20419;-59
2023/05/27 00:06:18;;;;;;;10.32;3.35;;;17.60;61.40;;;;;;3970505;29;20057;-59
2023/05/27 00:08:59;;;;;;;11.48;3.85;;;17.60;61.40;;;;;;3970538;29;20070;-59
2023/05/27 00:11:40;;;;;;;10.13;3.58;;;17.60;61.50;;;;;;3970426;29;20050;-59
2023/05/27 00:14:24;;;;;;;10.15;3.03;;;17.60;61.50;;;;;;3970810;29;20522;-58
2023/05/27 00:17:05;;;;;;;10.40;3.88;;;17.60;61.70;;;;;;3969173;29;20115;-58
2023/05/27 00:19:47;;;;;;;12.82;3.83;;;17.60;62.00;;;;;;3970631;29;20411;-59
2023/05/27 00:22:28;;;;;;;10.80;3.00;;;17.50;62.10;;;;;;3970057;29;20062;-58
2023/05/27 00:25:09;;;;;;;10.73;3.22;;;17.60;62.10;;;;;;3970025;29;20119;-59
2023/05/27 00:27:50;;;;;;;9.88;3.08;;;17.50;62.00;;;;;;3970815;29;20440;-59
2023/05/27 00:30:32;;;;;;;8.90;3.25;;;17.50;62.00;;;;;;3969832;29;20086;-59
2023/05/27 00:33:13;;;;;;;10.95;3.25;;;17.50;62.10;;;;;;3959064;29;20061;-59
2023/05/27 00:35:54;;;;;;;10.30;3.38;;;17.50;62.00;;;;;;3956127;29;20063;-59
2023/05/27 00:38:36;;;;;;;11.93;3.63;;;17.50;62.00;;;;;;3978913;29;20490;-59
2023/05/27 00:41:17;;;;;;;12.30;3.33;;;17.50;62.10;;;;;;3977331;29;20062;-59
2023/05/27 00:43:58;;;;;;;10.15;3.15;;;17.50;62.30;;;;;;3970634;29;20546;-59
2023/05/27 00:46:40;;;;;;;10.63;3.35;;;17.50;62.20;;;;;;3970465;29;20058;-59
2023/05/27 00:49:25;;;;;;;13.10;4.03;;;17.40;62.20;;;;;;3970451;29;20057;-58
2023/05/27 00:52:06;;;;;;;9.40;3.35;;;17.40;62.20;;;;;;3970166;29;20070;-59
2023/05/27 00:54:48;;;;;;;10.75;3.03;;;17.40;62.20;;;;;;3969516;29;20062;-58
2023/05/27 00:57:29;;;;;;;7.07;3.10;;;17.40;62.10;;;;;;3959535;29;20073;-58
2023/05/27 01:00:11;;;;;;;13.77;3.38;;;17.40;62.80;;;;;;3958476;29;20061;-59
2023/05/27 01:02:54;;;;;;;10.77;3.15;;;17.40;62.40;;;;;;3970015;29;20061;-59
2023/05/27 01:05:35;;;;;;;9.15;3.53;;;17.40;62.50;;;;;;3958783;29;20058;-58
2023/05/27 01:08:21;;;;;;;;;;;17.40;62.60;;;;;;3970541;29;20602;-58
2023/05/27 01:11:05;;;;;;;13.55;3.15;;;17.30;62.70;;;;;;3955410;29;19935;-58
2023/05/27 01:13:51;;;;;;;12.05;3.03;;;17.30;63.20;;;;;;3967240;29;20054;-58
2023/05/27 01:16:33;;;;;;;13.20;3.22;;;17.30;63.90;;;;;;3969758;29;20066;-58
2023/05/27 01:19:27;;;;;;;11.88;3.30;;;17.30;62.70;;;;;;3958830;29;20074;-58
2023/05/27 01:22:08;;;;;;;11.85;2.85;;;17.30;62.60;;;;;;3968962;29;20062;-57
2023/05/27 01:24:51;;;;;;;11.68;3.42;;;17.30;62.80;;;;;;3970072;29;20103;-58
2023/05/27 01:27:33;;;;;;;15.18;4.07;;;17.30;62.50;;;;;;3963089;29;20053;-59
2023/05/27 01:30:14;;;;;;;8.85;3.00;;;17.30;62.50;;;;;;3971937;29;20555;-59
2023/05/27 01:33:04;;;;;;;12.55;3.25;;;17.20;62.60;;;;;;3956958;29;20062;-60
2023/05/27 01:35:49;;;;;;;10.73;2.92;;;17.20;62.80;;;;;;3963068;29;20204;-60
2023/05/27 01:38:33;;;;;;;14.02;3.15;;;17.20;63.00;;;;;;3972911;29;20054;-60
2023/05/27 01:41:17;;;;;;;15.77;3.45;;;17.20;63.10;;;;;;3961819;29;20046;-60
2023/05/27 01:43:59;;;;;;;10.20;3.35;;;17.20;63.20;;;;;;3961063;29;20538;-60
2023/05/27 01:46:42;;;;;;;13.80;3.58;;;17.20;63.30;;;;;;3972318;29;20139;-61
2023/05/27 01:49:26;;;;;;;15.40;3.30;;;17.20;63.20;;;;;;3972642;29;20525;-60
2023/05/27 01:52:08;;;;;;;11.18;3.38;;;17.20;63.40;;;;;;3971631;29;20057;-60
2023/05/27 01:54:49;;;;;;;9.27;3.63;;;17.20;63.60;;;;;;3972941;29;20062;-60
2023/05/27 01:57:31;;;;;;;11.77;3.30;;;17.10;63.60;;;;;;3957895;29;20070;-60
2023/05/27 02:00:15;;;;;;;11.57;3.45;;;17.20;63.60;;;;;;3971055;29;20434;-60
2023/05/27 02:02:57;;;;;;;8.25;3.30;;;17.10;63.50;;;;;;3971789;29;20527;-59
2023/05/27 02:05:38;;;;;;;10.23;3.33;;;17.10;63.70;;;;;;3960457;29;20404;-60
2023/05/27 02:08:19;;;;;;;11.95;3.92;;;17.10;63.70;;;;;;3971411;29;20510;-58
2023/05/27 02:11:00;;;;;;;13.07;3.65;;;17.10;63.70;;;;;;3972163;29;20184;-59
2023/05/27 02:13:45;;;;;;;11.93;3.30;;;17.10;63.70;;;;;;3971202;29;20131;-60
2023/05/27 02:16:26;;;;;;;11.30;3.35;;;17.10;64.00;;;;;;3960674;29;20150;-59
2023/05/27 02:19:08;;;;;;;13.73;3.40;;;17.10;64.00;;;;;;3971140;29;20065;-61
2023/05/27 02:21:48;;;;;;;10.15;3.65;;;17.10;64.00;;;;;;3971612;29;20092;-59
2023/05/27 02:24:29;;;;;;;17.63;3.72;;;17.10;64.00;;;;;;3971059;29;20058;-59
2023/05/27 02:27:10;;;;;;;14.43;3.92;;;17.00;63.80;;;;;;3971671;29;20204;-60
2023/05/27 02:29:52;;;;;;;13.73;3.95;;;17.00;63.70;;;;;;3970388;29;20139;-59
2023/05/27 02:32:33;;;;;;;11.15;3.85;;;17.10;64.00;;;;;;3960684;29;20186;-60
2023/05/27 02:35:16;;;;;;;15.35;3.45;;;17.00;64.00;;;;;;3975653;29;20430;-59
2023/05/27 02:37:56;;;;;;;15.18;3.72;;;17.00;64.10;;;;;;3974532;29;20133;-60
2023/05/27 02:40:37;;;;;;;9.65;3.42;;;17.00;64.00;;;;;;3983976;29;20223;-59
2023/05/27 02:43:18;;;;;;;9.35;3.50;;;17.00;64.00;;;;;;3987100;29;20134;-61
2023/05/27 02:46:00;;;;;;;11.90;3.75;;;17.00;64.10;;;;;;3975726;29;20411;-59
2023/05/27 02:48:41;;;;;;;12.90;4.00;;;17.00;65.20;;;;;;3985669;29;20110;-60
2023/05/27 02:51:23;;;;;;;11.05;3.47;;;17.00;65.40;;;;;;3974207;29;20191;-60
2023/05/27 02:54:04;;;;;;;13.68;3.35;;;17.00;64.60;;;;;;3957003;29;20066;-59
2023/05/27 02:56:45;;;;;;;11.18;3.17;;;17.00;64.60;;;;;;3970886;29;20066;-60
2023/05/27 02:59:26;;;;;;;11.05;3.10;;;17.00;64.70;;;;;;3960252;29;20400;-59
2023/05/27 03:02:08;;;;;;;11.68;3.40;;;17.00;64.70;;;;;;3956518;29;20062;-60
2023/05/27 03:04:50;;;;;;;8.82;2.80;;;17.00;64.70;;;;;;3970317;29;20191;-59
2023/05/27 03:07:31;;;;;;;13.18;4.40;;;17.00;64.90;;;;;;3960196;29;20510;-60
2023/05/27 03:10:12;;;;;;;10.65;3.20;;;17.00;64.90;;;;;;3960502;29;20070;-60
2023/05/27 03:12:54;;;;;;;20.00;3.85;;;17.00;64.70;;;;;;3971354;29;20495;-60
2023/05/27 03:15:38;;;;;;;11.10;3.35;;;16.90;64.60;;;;;;3970454;29;20073;-60
2023/05/27 03:18:21;;;;;;;12.73;3.28;;;16.90;64.80;;;;;;3971187;29;20111;-60
2023/05/27 03:21:02;;;;;;;13.30;3.13;;;16.90;64.80;;;;;;3970336;29;20135;-60
2023/05/27 03:23:43;;;;;;;;;;;16.90;64.80;;;;;;3961783;29;20814;-60
2023/05/27 03:26:25;;;;;;;14.02;3.25;;;16.90;65.00;;;;;;3971036;29;20058;-60
2023/05/27 03:29:07;;;;;;;10.10;3.20;;;16.90;65.20;;;;;;3969827;29;20092;-60
2023/05/27 03:31:48;;;;;;;13.65;3.58;;;16.90;65.00;;;;;;3971046;29;20057;-60
2023/05/27 03:34:33;;;;;;;10.50;3.50;;;16.90;65.00;;;;;;3969578;29;20062;-60
2023/05/27 03:37:14;;;;;;;10.40;3.13;;;16.90;65.00;;;;;;3954701;29;20389;-60
2023/05/27 03:40:13;;;;;;;11.18;3.25;;;16.90;65.00;;;;;;3959112;29;20062;-60
2023/05/27 03:42:54;;;;;;;9.82;3.42;;;16.90;65.00;;;;;;3955552;29;20795;-61
2023/05/27 03:45:36;;;;;;;16.15;3.67;;;16.90;65.00;;;;;;3969976;29;20065;-61
2023/05/27 03:48:17;;;;;;;9.75;2.63;;;16.90;65.10;;;;;;3968964;29;20066;-60
2023/05/27 03:51:00;;;;;;;8.52;2.85;;;16.90;65.10;;;;;;3968556;29;20448;-60
2023/05/27 03:53:41;;;;;;;13.30;3.33;;;16.90;65.20;;;;;;3959712;29;20530;-51
2023/05/27 03:56:23;;;;;;;8.85;2.97;;;16.90;65.20;;;;;;3969500;29;20054;-51
2023/05/27 03:59:04;;;;;;;9.47;3.17;;;16.90;65.10;;;;;;3970596;29;20061;-52
2023/05/27 04:01:45;;;;;;;10.32;3.60;;;16.90;65.10;;;;;;3969834;29;20111;-50
2023/05/27 04:04:26;;;;;;;11.30;3.92;;;16.90;65.20;;;;;;3941628;29;20077;-54
2023/05/27 04:07:08;;;;;;;10.40;3.47;;;16.80;65.30;;;;;;3950199;29;20105;-50
2023/05/27 04:09:49;;;;;;;11.82;3.42;;;16.90;65.20;;;;;;3924335;30;20063;-50
2023/05/27 04:12:30;;;;;;;14.03;3.03;;;16.90;65.30;;;;;;3941559;29;20089;-51
2023/05/27 04:15:11;;;;;;;12.27;3.58;;;16.80;65.30;;;;;;3950049;29;20108;-53
2023/05/27 04:17:52;;;;;;;9.70;3.58;;;16.80;65.70;;;;;;3941157;29;20064;-50
2023/05/27 04:20:40;;;;;;;13.25;3.83;;;16.80;65.30;;;;;;3941166;29;20132;-54
2023/05/27 04:23:23;;;;;;;12.07;4.25;;;16.90;65.30;;;;;;3940477;30;20120;-53
2023/05/27 04:26:04;;;;;;;11.10;3.30;;;16.80;66.40;;;;;;3941012;29;20078;-52
2023/05/27 04:28:48;;;;;;;10.15;3.17;;;16.80;65.60;;;;;;3950754;29;20058;-54
2023/05/27 04:31:29;;;;;;;13.52;4.15;;;16.80;65.70;;;;;;3929455;30;20612;-50
2023/05/27 04:34:16;;;;;;;20.10;4.03;;;16.80;65.60;;;;;;3938938;30;20062;-54
2023/05/27 04:37:00;;;;;;;9.90;3.20;;;16.80;65.50;;;;;;3935261;30;20055;-54
2023/05/27 04:39:45;;;;;;;14.18;3.70;;;16.80;65.60;;;;;;3944390;30;20086;-53
2023/05/27 04:42:27;;;;;;;12.10;3.55;;;16.80;65.60;;;;;;3954774;29;20055;-52
2023/05/27 04:45:10;;;;;;;;;;;16.90;65.70;;;;;;3946424;29;20058;-54
2023/05/27 04:47:51;;;;;;;12.73;3.45;;;16.80;65.80;;;;;;3924240;30;20015;-53
2023/05/27 04:50:34;;;;;;;;;;;16.80;66.20;;;;;;3926158;30;20075;-51
2023/05/27 04:53:16;;;;;;;8.90;3.25;;;16.80;66.20;;;;;;3944281;30;19933;-54
2023/05/27 04:55:59;;;;;;;13.70;3.72;;;16.80;66.40;;;;;;3945329;29;20064;-52
2023/05/27 04:58:43;;;;;;;8.63;3.40;;;16.80;66.30;;;;;;3939639;30;20446;-53
2023/05/27 05:01:24;;;;;;;12.30;3.85;;;16.80;66.20;;;;;;3952025;29;20193;-51
2023/05/27 05:04:18;;;;;;;14.65;3.28;;;16.80;66.10;;;;;;3952676;29;20055;-53
2023/05/27 05:07:11;;;;;;;12.35;3.05;;;16.80;66.20;;;;;;3952778;29;20128;-52
2023/05/27 05:09:54;;;;;;;13.85;3.47;;;16.80;66.30;;;;;;3952961;29;20081;-51
2023/05/27 05:12:43;;;;;;;12.48;3.90;;;16.80;66.40;;;;;;3942872;29;20062;-54
2023/05/27 05:15:24;;;;;;;12.88;3.88;;;16.80;66.30;;;;;;3938647;29;20050;-49
2023/05/27 05:18:07;;;;;;;9.65;3.25;;;16.90;66.90;;;;;;3932340;30;20059;-51
2023/05/27 05:20:49;;;;;;;14.13;3.50;;;16.90;66.90;;;;;;3918935;30;20059;-49
2023/05/27 05:23:35;;;;;;;15.23;3.78;;;16.90;66.60;;;;;;3942399;30;20132;-48
2023/05/27 05:26:16;;;;;;;13.10;3.88;;;16.90;66.20;;;;;;3930900;30;20471;-52
2023/05/27 05:29:00;;;;;;;16.25;4.15;;;16.90;66.10;;;;;;3933052;30;20140;-50
2023/05/27 05:31:44;;;;;;;13.23;4.35;;;16.90;66.30;;;;;;3938605;30;20086;-50
2023/05/27 05:34:26;;;;;;;12.65;3.42;;;16.90;68.30;;;;;;3951185;29;20046;-53
2023/05/27 05:37:08;;;;;;;13.02;4.40;;;16.90;69.10;;;;;;3939026;30;20059;-49
2023/05/27 05:39:49;;;;;;;17.13;4.07;;;16.90;69.50;;;;;;3952561;29;20046;-50
2023/05/27 05:42:30;;;;;;;18.02;3.72;;;16.90;69.40;;;;;;3952239;29;20054;-50
2023/05/27 05:45:13;;;;;;;13.25;4.18;;;16.90;70.30;;;;;;3951529;29;20100;-49
2023/05/27 05:47:56;;;;;;;16.80;4.20;;;16.90;70.00;;;;;;3948893;29;20058;-49
2023/05/27 05:50:40;;;;;;;13.77;4.45;;;16.90;69.30;;;;;;3966536;29;20103;-49
2023/05/27 05:53:21;;;;;;;11.55;3.67;;;16.90;68.30;;;;;;3952440;29;20059;-49
2023/05/27 05:56:03;;;;;;;;;;;16.90;68.80;;;;;;3942736;30;20054;-48
2023/05/27 05:58:45;;;;;;;17.20;4.43;;;16.90;68.60;;;;;;3943108;29;19933;-50
2023/05/27 06:01:27;;;;;;;18.40;4.55;;;16.90;68.50;;;;;;3952347;29;20124;-49
2023/05/27 06:04:09;;;;;;;17.10;4.82;;;16.90;68.30;;;;;;3951982;29;20070;-52
2023/05/27 06:06:54;;;;;;;14.93;4.65;;;16.90;68.10;;;;;;3943491;29;20050;-49
2023/05/27 06:09:37;;;;;;;15.00;4.05;;;16.90;67.80;;;;;;3943240;29;20059;-50
2023/05/27 06:12:23;;;;;;;20.65;4.50;;;16.80;67.60;;;;;;3952418;29;20055;-49
2023/05/27 06:15:07;;;;;;;18.23;4.20;;;16.80;67.60;;;;;;3942737;29;20475;-48
2023/05/27 06:17:55;;;;;;;16.17;4.88;;;16.80;67.80;;;;;;3948330;29;20128;-51
2023/05/27 06:20:36;;;;;;;16.48;4.50;;;16.80;67.90;;;;;;3955592;29;20208;-49
2023/05/27 06:23:17;;;;;;;15.68;4.65;;;16.90;67.80;;;;;;3932910;30;20144;-55
2023/05/27 06:26:16;;;;;;;15.57;4.63;;;16.90;67.70;;;;;;3941446;30;20063;-48
2023/05/27 06:29:02;;;;;;;18.48;4.47;;;16.90;68.60;;;;;;3931771;30;20063;-48
2023/05/27 06:31:44;;;;;;;16.83;4.10;;;16.90;67.50;;;;;;3941665;30;20637;-50
2023/05/27 06:34:26;;;;;;;16.80;4.32;;;17.00;67.70;;;;;;3941871;30;20154;-49
2023/05/27 06:37:08;;;;;;;12.75;4.25;;;17.00;67.80;;;;;;3937127;30;20094;-49
2023/05/27 06:39:49;;;;;;;14.70;4.63;;;17.00;67.50;;;;;;3937368;30;20070;-49
2023/05/27 06:42:31;;;;;;;13.88;4.20;;;17.00;67.40;;;;;;3947470;30;20067;-48
2023/05/27 06:45:30;;;;;;;16.10;4.07;;;17.10;67.50;;;;;;3927825;30;20071;-48
2023/05/27 06:48:24;;;;;;;18.38;4.38;;;17.10;67.80;;;;;;3951291;29;20062;-49
2023/05/27 06:51:08;;;;;;;16.27;5.05;;;17.10;67.90;;;;;;3951849;29;20058;-49
2023/05/27 06:53:50;;;;;;;15.30;5.00;;;17.20;68.10;;;;;;3941394;30;20054;-48
2023/05/27 06:56:36;;;;;;;15.70;4.85;;;17.20;67.80;;;;;;3935100;30;20269;-47
2023/05/27 06:59:23;;;;;;;26.88;10.50;;;17.20;67.70;;;;;;3941381;30;20074;-49
2023/05/27 07:02:05;;;;;;;23.88;6.25;;;17.30;68.00;;;;;;3930563;29;20139;-52
2023/05/27 07:04:46;;;;;;;18.15;4.75;;;17.40;67.50;;;;;;3954498;29;20063;-53
2023/05/27 07:07:28;;;;;;;16.02;5.60;;;17.50;67.30;;;;;;3948449;29;20146;-49
2023/05/27 07:10:10;;;;;;;15.32;3.83;;;17.60;66.80;;;;;;3945169;30;20057;-49
2023/05/27 07:12:51;;;;;;;17.38;4.30;;;17.70;66.20;;;;;;3955256;29;20054;-49
2023/05/27 07:15:51;;;;;;;17.90;4.03;;;17.70;66.30;;;;;;3956354;29;20070;-57
2023/05/27 07:18:32;;;;;;;13.82;3.75;;;17.80;66.00;;;;;;3955232;29;20070;-57
2023/05/27 07:21:15;;;;;;;13.18;4.43;;;17.80;66.10;;;;;;3968891;29;20057;-57
2023/05/27 07:23:58;;;;;;;18.98;4.00;;;17.90;65.70;;;;;;3968152;29;20059;-49
2023/05/27 07:26:44;;;;;;;15.63;4.82;;;17.90;65.20;;;;;;3956321;29;20094;-50
2023/05/27 07:29:27;;;;;;;18.70;4.43;;;17.90;65.10;;;;;;3940553;30;20515;-57
2023/05/27 07:32:07;;;;;;;14.30;4.05;;;17.90;64.80;;;;;;3941320;30;20055;-58
2023/05/27 07:34:49;;;;;;;17.85;4.18;;;17.90;65.00;;;;;;3951042;29;20066;-57
2023/05/27 07:37:31;;;;;;;10.05;3.83;;;18.00;64.90;;;;;;3940785;30;20515;-57
2023/05/27 07:40:13;;;;;;;15.60;4.00;;;18.00;64.60;;;;;;3944970;29;20066;-57
2023/05/27 07:42:54;;;;;;;11.95;4.35;;;18.00;64.20;;;;;;3956230;29;20049;-57
2023/05/27 07:45:38;;;;;;;14.45;3.78;;;18.00;64.50;;;;;;3955780;29;20066;-52
2023/05/27 07:48:20;;;;;;;11.38;4.88;;;18.00;64.60;;;;;;3944784;29;20062;-57
2023/05/27 07:51:01;;;;;;;15.20;5.10;;;18.00;64.40;;;;;;3956352;29;20104;-57
2023/05/27 07:53:42;;;;;;;;;;;18.00;65.10;;;;;;3960149;29;20111;-57
2023/05/27 07:56:26;;;;;;;12.82;4.10;;;18.00;64.80;;;;;;3965667;29;19932;-57
2023/05/27 07:59:07;;;;;;;16.20;4.40;;;18.00;64.90;;;;;;3957630;29;20577;-49
2023/05/27 08:01:48;;;;;;;10.38;3.42;;;18.00;64.70;;;;;;3943071;30;20091;-60
2023/05/27 08:04:32;;;;;;;15.05;4.18;;;18.00;64.60;;;;;;3940994;30;20128;-50
2023/05/27 08:07:35;;;;;;;11.82;3.78;;;18.00;65.10;;;;;;3949400;29;20668;-51
2023/05/27 08:10:28;;;;;;;13.45;3.95;;;18.00;66.50;;;;;;3954759;29;20119;-53
2023/05/27 08:13:30;;;;;;;17.23;4.53;;;18.10;65.60;;;;;;3955513;29;20941;-59
2023/05/27 08:16:41;;;;;;;15.55;5.03;;;18.10;65.30;;;;;;3954532;29;20363;-58
2023/05/27 08:19:43;;;;;;;;;;;18.10;65.40;;;;;;3940975;30;20054;-58
2023/05/27 08:22:43;;;;;;;14.25;4.35;;;18.10;65.30;;;;;;3939487;30;19933;-58
2023/05/27 08:25:43;;;;;;;16.70;4.43;;;18.10;65.40;;;;;;3940143;30;20055;-58
2023/05/27 08:28:49;;;;;;;17.50;4.30;;;18.10;65.50;;;;;;3944869;30;20165;-59
2023/05/27 08:31:51;;;;;;;10.38;3.90;;;18.20;65.40;;;;;;3955092;29;20552;-59
2023/05/27 08:34:33;;;;;;;14.18;4.20;;;18.20;65.30;;;;;;3956073;29;20268;-59
2023/05/27 08:37:14;;;;;;;13.00;4.40;;;18.20;65.10;;;;;;3957869;29;20211;-59
2023/05/27 08:39:57;;;;;;;11.60;3.80;;;18.20;65.30;;;;;;3948786;29;20541;-59
2023/05/27 08:42:57;;;;;;;14.90;4.43;;;18.30;65.60;;;;;;3957853;29;20070;-59
2023/05/27 08:45:43;;;;;;;12.88;4.75;;;18.30;65.40;;;;;;3957906;29;20115;-59
2023/05/27 08:48:25;;;;;;;14.43;4.68;;;18.30;65.30;;;;;;3958049;29;20067;-59
2023/05/27 08:51:06;;;;;;;15.20;4.72;;;18.40;65.30;;;;;;3958592;29;20435;-59
2023/05/27 08:53:48;;;;;;;15.55;4.60;;;18.40;65.00;;;;;;3957743;30;20585;-52
2023/05/27 08:56:32;;;;;;;14.15;5.13;;;18.50;64.60;;;;;;3958103;29;20427;-50
2023/05/27 08:59:14;;;;;;;12.02;4.78;;;18.50;64.40;;;;;;3957303;29;20050;-50
2023/05/27 09:01:57;;;;;;;17.95;4.55;;;18.60;64.60;;;;;;3947025;30;20577;-50
2023/05/27 09:04:40;;;;;;;13.90;5.10;;;18.60;64.30;;;;;;3957544;29;20063;-60
2023/05/27 09:07:22;;;;;;;15.10;5.10;;;18.60;64.20;;;;;;3957849;29;20066;-50
2023/05/27 09:10:06;;;;;;;15.73;5.18;;;18.60;64.50;;;;;;3958344;29;20078;-59
2023/05/27 09:12:47;;;;;;;14.98;5.72;;;18.70;65.70;;;;;;3948936;29;20062;-60
2023/05/27 09:15:28;;;;;;;12.02;4.80;;;18.70;64.60;;;;;;3958230;29;20112;-60
2023/05/27 09:18:11;;;;;;;13.98;5.07;;;18.70;64.70;;;;;;3932625;30;20066;-59
2023/05/27 09:20:55;;;;;;;11.65;4.72;;;18.70;64.10;;;;;;3957626;29;20112;-60
2023/05/27 09:23:38;;;;;;;7.22;3.60;;;18.80;64.00;;;;;;3957416;29;20062;-50
2023/05/27 09:26:20;;;;;;;13.60;5.18;;;18.80;63.80;;;;;;3946488;29;20115;-54
2023/05/27 09:29:02;;;;;;;14.68;4.82;;;18.90;63.90;;;;;;3948723;29;20058;-52
2023/05/27 09:31:44;;;;;;;13.65;5.72;;;18.90;64.70;;;;;;3957605;29;20059;-53
2023/05/27 09:34:29;;;;;;;13.50;5.07;;;18.90;63.70;;;;;;3957699;29;20061;-60
2023/05/27 09:37:15;;;;;;;13.52;5.05;;;18.90;63.50;;;;;;3957659;29;20419;-53
2023/05/27 09:39:56;;;;;;;14.15;5.00;;;19.00;63.60;;;;;;3956287;29;20415;-61
2023/05/27 09:42:41;;;;;;;15.00;6.07;;;19.00;63.70;;;;;;3940256;29;20052;-60
2023/05/27 09:45:22;;;;;;;15.40;5.22;;;19.10;63.30;;;;;;3948935;29;20066;-61
2023/05/27 09:48:04;;;;;;;14.93;5.05;;;19.10;63.30;;;;;;3956661;30;20058;-60
2023/05/27 09:50:47;;;;;;;15.18;4.63;;;19.10;63.20;;;;;;3957793;29;20058;-60
2023/05/27 09:53:30;;;;;;;18.05;5.00;;;19.10;62.80;;;;;;3956917;29;20108;-60
2023/05/27 09:56:11;;;;;;;12.95;5.07;;;19.10;62.80;;;;;;3956524;29;20222;-50
2023/05/27 09:58:52;;;;;;;12.30;5.25;;;19.20;63.00;;;;;;3956985;29;20122;-54
2023/05/27 10:01:33;;;;;;;12.10;4.72;;;19.20;62.80;;;;;;3957719;29;20066;-54
2023/05/27 10:04:15;;;;;;;;;;;19.20;62.60;;;;;;3958409;29;20058;-50
2023/05/27 10:06:58;;;;;;;15.32;4.82;;;19.30;62.70;;;;;;3940478;30;20500;-50
2023/05/27 10:09:39;;;;;;;16.83;5.30;;;19.30;62.50;;;;;;3935064;29;20537;-54
2023/05/27 10:12:34;;;;;;;12.23;5.10;;;19.30;62.10;;;;;;3942858;29;20066;-53
2023/05/27 10:15:23;;;;;;;14.73;5.65;;;19.30;62.00;;;;;;3943183;30;20641;-51
2023/05/27 10:18:09;;;;;;;20.08;5.55;;;19.40;62.10;;;;;;3957121;29;20599;-53
2023/05/27 10:20:51;;;;;;;14.05;5.38;;;19.40;62.20;;;;;;3956962;29;20082;-54
2023/05/27 10:23:33;;;;;;;13.57;5.35;;;19.40;62.10;;;;;;3957068;30;20070;-54
2023/05/27 10:26:14;;;;;;;10.75;4.85;;;19.40;62.00;;;;;;3942365;30;20627;-54
2023/05/27 10:29:07;;;;;;;12.45;4.75;;;19.40;61.80;;;;;;3957605;29;20074;-51
2023/05/27 10:31:50;;;;;;;17.52;5.22;;;19.40;61.50;;;;;;3942887;30;20062;-54
2023/05/27 10:34:37;;;;;;;17.42;5.03;;;19.50;61.60;;;;;;3942639;29;20071;-54
2023/05/27 10:37:21;;;;;;;15.90;6.20;;;19.40;61.70;;;;;;3932657;29;20062;-52
2023/05/27 10:40:06;;;;;;;12.18;5.35;;;19.50;61.60;;;;;;3942815;29;20140;-54
2023/05/27 10:42:47;;;;;;;13.13;6.05;;;19.50;61.70;;;;;;3956667;29;20120;-54
2023/05/27 10:45:33;;;;;;;13.15;5.78;;;19.60;61.80;;;;;;3954192;29;20376;-52
2023/05/27 10:48:19;;;;;;;15.52;4.85;;;19.60;61.50;;;;;;3945877;29;20058;-51
2023/05/27 10:51:00;;;;;;;17.27;5.47;;;19.60;61.30;;;;;;3966400;29;20528;-54
2023/05/27 10:53:41;;;;;;;13.88;4.78;;;19.60;61.80;;;;;;3957215;29;20066;-54
2023/05/27 10:56:25;;;;;;;12.18;5.43;;;19.60;61.20;;;;;;3957476;29;20518;-51
2023/05/27 10:59:11;;;;;;;17.80;6.25;;;19.70;61.20;;;;;;3956409;29;20054;-53
2023/05/27 11:01:54;;;;;;;11.85;5.57;;;19.70;61.00;;;;;;3942335;29;20532;-51
2023/05/27 11:04:36;;;;;;;12.18;4.72;;;19.70;60.90;;;;;;3954621;29;20108;-53
2023/05/27 11:07:19;;;;;;;15.30;5.40;;;19.70;60.40;;;;;;3955578;29;20054;-52
2023/05/27 11:10:00;;;;;;;11.88;5.38;;;19.70;60.50;;;;;;3953957;29;20510;-62
2023/05/27 11:12:45;;;;;;;13.57;4.63;;;19.70;60.50;;;;;;3957311;29;20419;-53
2023/05/27 11:15:27;;;;;;;14.05;5.03;;;19.80;60.70;;;;;;3957041;29;20061;-54
2023/05/27 11:18:09;;;;;;;14.95;4.88;;;19.80;61.00;;;;;;3957230;29;20065;-53
2023/05/27 11:21:01;;;;;;;10.98;5.03;;;19.80;61.10;;;;;;4201116;27;20373;-54
2023/05/27 11:23:44;;;;;;;14.57;5.28;;;19.90;60.60;;;;;;4205110;28;20047;-58
2023/05/27 11:26:25;;;;;;;12.02;4.82;;;19.90;60.20;;;;;;4207237;27;20055;-58
2023/05/27 11:29:08;;;;;;;16.48;5.10;;;19.90;60.00;;;;;;4202498;27;20056;-59
2023/05/27 11:31:49;;;;;;;13.40;5.07;;;19.90;60.40;;;;;;4189433;28;20133;-60
2023/05/27 11:34:30;;;;;;;10.38;4.53;;;19.90;60.50;;;;;;4189685;28;20141;-60
2023/05/27 11:37:12;;;;;;;12.57;5.53;;;20.00;60.90;;;;;;4192272;28;20067;-60
2023/05/27 11:39:54;;;;;;;11.95;5.45;;;20.00;60.60;;;;;;4205299;28;20206;-60
2023/05/27 11:42:34;;;;;;;;;;;20.00;60.30;;;;;;4203004;27;20054;-60
2023/05/27 11:45:17;;;;;;;13.17;5.10;;;20.00;60.10;;;;;;4222978;27;19926;-59
2023/05/27 11:47:58;;;;;;;13.68;5.00;;;20.00;61.10;;;;;;4206379;28;20124;-60
2023/05/27 11:50:39;;;;;;;12.23;5.68;;;20.00;60.10;;;;;;4205926;28;20148;-59
2023/05/27 11:53:22;;;;;;;11.05;5.00;;;20.00;60.00;;;;;;4218552;27;20426;-60
2023/05/27 11:56:03;;;;;;;13.40;5.38;;;20.10;59.80;;;;;;4216567;27;20055;-59
2023/05/27 11:58:44;;;;;;;12.52;4.47;;;20.10;59.60;;;;;;4209222;27;20135;-59
2023/05/27 12:01:26;;;;;;;14.02;5.57;;;20.10;59.80;;;;;;4222148;27;20551;-59
2023/05/27 12:04:07;;;;;;;8.85;4.53;;;20.10;60.00;;;;;;4217065;27;20639;-59
2023/05/27 12:06:48;;;;;;;11.68;5.18;;;20.10;60.00;;;;;;4195702;28;20510;-59
2023/05/27 12:09:30;;;;;;;14.30;5.10;;;20.10;59.80;;;;;;4216638;27;20047;-59
2023/05/27 12:12:11;;;;;;;13.63;5.35;;;20.20;59.60;;;;;;4204164;28;20063;-60
2023/05/27 12:14:52;;;;;;;16.48;5.45;;;20.20;59.50;;;;;;4204579;28;20073;-59
2023/05/27 12:17:33;;;;;;;12.20;4.35;;;20.20;59.60;;;;;;4205793;28;20056;-60
2023/05/27 12:20:14;;;;;;;11.75;4.95;;;20.20;59.70;;;;;;4206203;28;20529;-55
2023/05/27 12:22:58;;;;;;;15.18;5.35;;;20.20;59.80;;;;;;4188243;28;20056;-54
2023/05/27 12:25:41;;;;;;;14.13;5.18;;;20.30;59.80;;;;;;4196153;28;20067;-54
2023/05/27 12:28:22;;;;;;;11.85;5.05;;;20.30;59.80;;;;;;4205128;28;20130;-51
2023/05/27 12:31:03;;;;;;;15.80;5.10;;;20.30;59.50;;;;;;4201141;28;20059;-55
2023/05/27 12:33:45;;;;;;;12.25;4.68;;;20.30;59.40;;;;;;4194188;28;20498;-52
2023/05/27 12:36:26;;;;;;;16.25;5.82;;;20.30;59.60;;;;;;4194039;28;20055;-54
2023/05/27 12:39:07;;;;;;;11.68;5.10;;;20.40;59.40;;;;;;4177588;28;20510;-54
2023/05/27 12:41:49;;;;;;;17.67;5.65;;;20.40;59.50;;;;;;4177664;28;20118;-55
2023/05/27 12:44:30;;;;;;;13.32;5.20;;;20.40;59.40;;;;;;4177440;28;20807;-55
2023/05/27 12:47:11;;;;;;;14.18;5.30;;;20.40;59.40;;;;;;4182757;28;20064;-53
2023/05/27 12:49:52;;;;;;;13.13;5.10;;;20.40;59.50;;;;;;4194594;28;20396;-53
2023/05/27 12:52:33;;;;;;;17.70;5.70;;;20.50;60.20;;;;;;4191548;28;20055;-54
2023/05/27 12:55:17;;;;;;;14.85;6.60;;;20.50;59.00;;;;;;4195467;28;20105;-54
2023/05/27 12:57:59;;;;;;;17.23;5.55;;;20.50;59.00;;;;;;4199819;28;20043;-53
2023/05/27 13:00:41;;;;;;;13.18;5.38;;;20.50;58.80;;;;;;4202883;28;20078;-53
2023/05/27 13:03:21;;;;;;;;;;;20.50;58.80;;;;;;4191471;28;20052;-51
2023/05/27 13:06:02;;;;;;;12.15;4.78;;;20.60;58.90;;;;;;4194974;28;19927;-52
2023/05/27 13:08:43;;;;;;;16.73;5.35;;;20.60;59.10;;;;;;4208719;28;20100;-55
2023/05/27 13:11:26;;;;;;;13.25;5.28;;;20.60;59.00;;;;;;4183134;28;20063;-52
2023/05/27 13:14:08;;;;;;;12.95;5.00;;;20.60;59.10;;;;;;4193687;28;20483;-55
2023/05/27 13:16:49;;;;;;;15.23;5.18;;;20.70;59.20;;;;;;4186877;28;20067;-55
2023/05/27 13:19:30;;;;;;;15.18;5.55;;;20.70;59.40;;;;;;4199257;28;20059;-53
2023/05/27 13:22:13;;;;;;;11.80;5.38;;;20.70;59.40;;;;;;4209138;28;20109;-54
2023/05/27 13:24:55;;;;;;;13.00;5.90;;;20.70;59.50;;;;;;4209956;28;20055;-53
2023/05/27 13:27:36;;;;;;;13.98;5.07;;;20.70;59.60;;;;;;4210200;28;20121;-54
2023/05/27 13:30:19;;;;;;;;;;;20.80;59.70;;;;;;4210285;28;20467;-54
2023/05/27 13:32:59;;;;;;;13.32;5.03;;;20.80;59.80;;;;;;4210347;28;19931;-52
2023/05/27 13:35:41;;;;;;;17.80;5.40;;;20.80;59.90;;;;;;4193685;28;20051;-53
2023/05/27 13:38:22;;;;;;;17.20;5.22;;;20.80;59.80;;;;;;4193181;28;20055;-51
2023/05/27 13:41:05;;;;;;;17.35;5.10;;;20.80;59.80;;;;;;4193575;28;20055;-53
2023/05/27 13:43:49;;;;;;;14.30;5.20;;;20.80;59.90;;;;;;4166101;28;20131;-52
2023/05/27 13:46:32;;;;;;;14.48;6.20;;;20.90;59.80;;;;;;4176536;28;20483;-54
2023/05/27 13:49:13;;;;;;;13.38;5.45;;;20.80;59.70;;;;;;4176110;28;20157;-52
2023/05/27 13:51:54;;;;;;;18.48;5.72;;;20.90;59.60;;;;;;4181403;28;20072;-51
2023/05/27 13:54:35;;;;;;;14.55;5.15;;;20.90;59.70;;;;;;4193576;28;20055;-51
2023/05/27 13:57:16;;;;;;;15.13;5.68;;;20.90;59.80;;;;;;4191784;28;20059;-51
2023/05/27 14:00:00;;;;;;;;;;;20.90;59.50;;;;;;4176079;28;20052;-54
2023/05/27 14:02:45;;;;;;;14.18;4.93;;;20.90;59.50;;;;;;4176185;28;19927;-52